sensor_id;sensor_type;location;lat;lon;timestamp;P1;durP1;ratioP1;P2;durP2;ratioP2
62110;SDS011;48102;47.526;19.072;2023-04-24T03:41:18;5.93;;;4.35;;
62110;SDS011;48102;47.526;19.072;2023-04-24T03:44:23;6.07;;;5.20;;
62110;SDS011;48102;47.526;19.072;2023-04-24T03:47:26;7.05;;;6.12;;
62110;SDS011;48102;47.526;19.072;2023-04-24T03:50:31;5.40;;;4.35;;
62110;SDS011;48102;47.526;19.072;2023-04-24T03:53:34;7.45;;;5.62;;
62110;SDS011;48102;47.526;19.072;2023-04-24T03:56:41;6.47;;;4.50;;
62110;SDS011;48102;47.526;19.072;2023-04-24T03:59:44;6.47;;;4.62;;
62110;SDS011;48102;47.526;19.072;2023-04-24T04:02:48;6.18;;;4.80;;
62110;SDS011;48102;47.526;19.072;2023-04-24T04:08:53;6.18;;;4.97;;
62110;SDS011;48102;47.526;19.072;2023-04-24T04:11:56;6.43;;;5.05;;
62110;SDS011;48102;47.526;19.072;2023-04-24T04:14:59;9.45;;;5.90;;
62110;SDS011;48102;47.526;19.072;2023-04-24T04:18:02;15.43;;;8.23;;
62110;SDS011;48102;47.526;19.072;2023-04-24T04:21:06;10.23;;;5.82;;
62110;SDS011;48102;47.526;19.072;2023-04-24T04:24:09;8.15;;;4.80;;
62110;SDS011;48102;47.526;19.072;2023-04-24T04:27:12;8.02;;;4.22;;
62110;SDS011;48102;47.526;19.072;2023-04-24T04:30:17;8.30;;;4.10;;
62110;SDS011;48102;47.526;19.072;2023-04-24T04:33:21;5.00;;;4.28;;
62110;SDS011;48102;47.526;19.072;2023-04-24T04:36:24;10.00;;;5.03;;
62110;SDS011;48102;47.526;19.072;2023-04-24T04:39:32;5.32;;;4.20;;
62110;SDS011;48102;47.526;19.072;2023-04-24T04:42:35;6.37;;;4.80;;
62110;SDS011;48102;47.526;19.072;2023-04-24T04:45:39;4.97;;;4.30;;
62110;SDS011;48102;47.526;19.072;2023-04-24T04:48:46;5.82;;;4.50;;
62110;SDS011;48102;47.526;19.072;2023-04-24T04:51:49;4.80;;;4.12;;
62110;SDS011;48102;47.526;19.072;2023-04-24T04:54:54;5.57;;;4.20;;
62110;SDS011;48102;47.526;19.072;2023-04-24T04:57:57;7.47;;;4.62;;
62110;SDS011;48102;47.526;19.072;2023-04-24T05:01:00;10.25;;;4.45;;
62110;SDS011;48102;47.526;19.072;2023-04-24T05:04:03;9.90;;;4.37;;
62110;SDS011;48102;47.526;19.072;2023-04-24T05:07:07;4.55;;;4.15;;
62110;SDS011;48102;47.526;19.072;2023-04-24T05:10:10;5.15;;;3.90;;
62110;SDS011;48102;47.526;19.072;2023-04-24T05:13:14;5.18;;;4.35;;
62110;SDS011;48102;47.526;19.072;2023-04-24T05:16:22;4.65;;;3.90;;
62110;SDS011;48102;47.526;19.072;2023-04-24T05:19:26;8.57;;;4.50;;
62110;SDS011;48102;47.526;19.072;2023-04-24T05:22:29;5.35;;;4.53;;
62110;SDS011;48102;47.526;19.072;2023-04-24T05:25:31;6.93;;;4.00;;
62110;SDS011;48102;47.526;19.072;2023-04-24T05:28:38;4.60;;;4.12;;
62110;SDS011;48102;47.526;19.072;2023-04-24T05:31:42;4.50;;;3.72;;
62110;SDS011;48102;47.526;19.072;2023-04-24T05:34:45;4.85;;;4.00;;
62110;SDS011;48102;47.526;19.072;2023-04-24T05:37:49;4.82;;;4.07;;
62110;SDS011;48102;47.526;19.072;2023-04-24T05:40:52;5.25;;;4.37;;
62110;SDS011;48102;47.526;19.072;2023-04-24T05:43:55;5.68;;;4.40;;
62110;SDS011;48102;47.526;19.072;2023-04-24T05:46:58;5.93;;;3.85;;
62110;SDS011;48102;47.526;19.072;2023-04-24T05:53:03;6.97;;;4.63;;
62110;SDS011;48102;47.526;19.072;2023-04-24T05:56:08;4.93;;;4.05;;
62110;SDS011;48102;47.526;19.072;2023-04-24T05:59:11;7.32;;;4.28;;
62110;SDS011;48102;47.526;19.072;2023-04-24T06:05:17;5.67;;;3.70;;
62110;SDS011;48102;47.526;19.072;2023-04-24T06:08:20;5.97;;;4.28;;
62110;SDS011;48102;47.526;19.072;2023-04-24T06:11:23;9.00;;;3.92;;
62110;SDS011;48102;47.526;19.072;2023-04-24T06:14:27;4.85;;;3.83;;
62110;SDS011;48102;47.526;19.072;2023-04-24T06:17:31;7.35;;;3.45;;
62110;SDS011;48102;47.526;19.072;2023-04-24T06:20:35;5.82;;;3.67;;
62110;SDS011;48102;47.526;19.072;2023-04-24T06:23:38;6.43;;;4.05;;
62110;SDS011;48102;47.526;19.072;2023-04-24T06:26:41;5.87;;;3.92;;
62110;SDS011;48102;47.526;19.072;2023-04-24T06:29:44;6.55;;;3.42;;
62110;SDS011;48102;47.526;19.072;2023-04-24T06:35:50;4.85;;;3.92;;
62110;SDS011;48102;47.526;19.072;2023-04-24T06:38:52;4.72;;;4.03;;
62110;SDS011;48102;47.526;19.072;2023-04-24T06:41:56;3.58;;;2.95;;
62110;SDS011;48102;47.526;19.072;2023-04-24T06:45:02;4.25;;;3.10;;
62110;SDS011;48102;47.526;19.072;2023-04-24T06:48:05;3.40;;;3.12;;
62110;SDS011;48102;47.526;19.072;2023-04-24T06:51:08;4.72;;;3.80;;
62110;SDS011;48102;47.526;19.072;2023-04-24T06:54:11;4.28;;;3.53;;
62110;SDS011;48102;47.526;19.072;2023-04-24T07:00:18;4.12;;;3.20;;
62110;SDS011;48102;47.526;19.072;2023-04-24T07:03:21;4.72;;;3.58;;
62110;SDS011;48102;47.526;19.072;2023-04-24T07:06:24;4.82;;;3.20;;
62110;SDS011;48102;47.526;19.072;2023-04-24T07:12:30;5.57;;;3.42;;
62110;SDS011;48102;47.526;19.072;2023-04-24T07:15:34;4.10;;;3.25;;
62110;SDS011;48102;47.526;19.072;2023-04-24T07:18:38;4.40;;;3.55;;
62110;SDS011;48102;47.526;19.072;2023-04-24T07:21:42;4.22;;;3.35;;
62110;SDS011;48102;47.526;19.072;2023-04-24T07:24:45;4.87;;;3.40;;
62110;SDS011;48102;47.526;19.072;2023-04-24T07:27:47;4.43;;;3.67;;
62110;SDS011;48102;47.526;19.072;2023-04-24T07:30:51;4.78;;;3.45;;
62110;SDS011;48102;47.526;19.072;2023-04-24T07:33:56;4.78;;;4.18;;
62110;SDS011;48102;47.526;19.072;2023-04-24T07:37:01;4.28;;;3.33;;
62110;SDS011;48102;47.526;19.072;2023-04-24T07:40:04;4.22;;;3.83;;
62110;SDS011;48102;47.526;19.072;2023-04-24T07:43:07;4.25;;;3.85;;
62110;SDS011;48102;47.526;19.072;2023-04-24T07:46:10;5.60;;;3.97;;
62110;SDS011;48102;47.526;19.072;2023-04-24T07:49:13;3.95;;;3.55;;
62110;SDS011;48102;47.526;19.072;2023-04-24T07:52:20;5.68;;;4.10;;
62110;SDS011;48102;47.526;19.072;2023-04-24T07:58:29;5.50;;;3.75;;
62110;SDS011;48102;47.526;19.072;2023-04-24T08:04:35;3.95;;;3.55;;
62110;SDS011;48102;47.526;19.072;2023-04-24T08:07:38;5.15;;;3.70;;
62110;SDS011;48102;47.526;19.072;2023-04-24T08:10:41;4.28;;;3.87;;
62110;SDS011;48102;47.526;19.072;2023-04-24T08:13:43;5.30;;;4.15;;
62110;SDS011;48102;47.526;19.072;2023-04-24T08:16:49;5.57;;;4.12;;
62110;SDS011;48102;47.526;19.072;2023-04-24T08:19:52;6.50;;;4.18;;
62110;SDS011;48102;47.526;19.072;2023-04-24T08:23:01;6.15;;;4.60;;
62110;SDS011;48102;47.526;19.072;2023-04-24T08:26:04;6.62;;;4.57;;
62110;SDS011;48102;47.526;19.072;2023-04-24T08:29:16;5.70;;;4.93;;
62110;SDS011;48102;47.526;19.072;2023-04-24T08:32:19;4.78;;;3.53;;
62110;SDS011;48102;47.526;19.072;2023-04-24T08:35:22;4.53;;;3.95;;
62110;SDS011;48102;47.526;19.072;2023-04-24T08:41:28;4.55;;;4.07;;
62110;SDS011;48102;47.526;19.072;2023-04-24T08:47:38;4.05;;;3.65;;
62110;SDS011;48102;47.526;19.072;2023-04-24T08:50:43;8.52;;;4.80;;
62110;SDS011;48102;47.526;19.072;2023-04-24T08:53:47;4.53;;;3.65;;
62110;SDS011;48102;47.526;19.072;2023-04-24T08:56:50;14.80;;;4.10;;
62110;SDS011;48102;47.526;19.072;2023-04-24T08:59:56;4.07;;;3.67;;
62110;SDS011;48102;47.526;19.072;2023-04-24T09:03:00;4.85;;;3.70;;
62110;SDS011;48102;47.526;19.072;2023-04-24T09:06:05;5.20;;;3.75;;
62110;SDS011;48102;47.526;19.072;2023-04-24T09:09:09;7.57;;;4.28;;
62110;SDS011;48102;47.526;19.072;2023-04-24T09:12:14;5.07;;;4.20;;
62110;SDS011;48102;47.526;19.072;2023-04-24T09:15:17;5.05;;;4.35;;
62110;SDS011;48102;47.526;19.072;2023-04-24T09:18:22;4.97;;;4.10;;
62110;SDS011;48102;47.526;19.072;2023-04-24T09:21:26;4.55;;;3.12;;
62110;SDS011;48102;47.526;19.072;2023-04-24T09:24:35;3.10;;;2.80;;
62110;SDS011;48102;47.526;19.072;2023-04-24T09:30:46;3.83;;;2.70;;
62110;SDS011;48102;47.526;19.072;2023-04-24T09:34:04;3.15;;;2.85;;
62110;SDS011;48102;47.526;19.072;2023-04-24T09:37:10;4.53;;;3.15;;
62110;SDS011;48102;47.526;19.072;2023-04-24T09:40:17;4.45;;;3.03;;
62110;SDS011;48102;47.526;19.072;2023-04-24T09:43:22;5.43;;;2.67;;
62110;SDS011;48102;47.526;19.072;2023-04-24T09:46:29;4.62;;;2.95;;
62110;SDS011;48102;47.526;19.072;2023-04-24T09:49:34;4.37;;;3.03;;
62110;SDS011;48102;47.526;19.072;2023-04-24T09:52:45;3.05;;;2.60;;
62110;SDS011;48102;47.526;19.072;2023-04-24T09:55:49;4.93;;;3.25;;
62110;SDS011;48102;47.526;19.072;2023-04-24T09:58:52;5.62;;;2.65;;
62110;SDS011;48102;47.526;19.072;2023-04-24T10:01:55;6.25;;;3.37;;
62110;SDS011;48102;47.526;19.072;2023-04-24T10:05:01;5.32;;;2.95;;
62110;SDS011;48102;47.526;19.072;2023-04-24T10:08:05;5.82;;;3.12;;
62110;SDS011;48102;47.526;19.072;2023-04-24T10:11:10;6.12;;;3.42;;
62110;SDS011;48102;47.526;19.072;2023-04-24T10:14:14;2.85;;;2.30;;
62110;SDS011;48102;47.526;19.072;2023-04-24T10:17:21;3.65;;;2.83;;
62110;SDS011;48102;47.526;19.072;2023-04-24T10:20:26;3.30;;;3.00;;
62110;SDS011;48102;47.526;19.072;2023-04-24T10:23:34;4.57;;;3.10;;
62110;SDS011;48102;47.526;19.072;2023-04-24T10:26:38;7.93;;;2.72;;
62110;SDS011;48102;47.526;19.072;2023-04-24T10:29:43;4.47;;;2.97;;
62110;SDS011;48102;47.526;19.072;2023-04-24T10:32:47;6.25;;;3.10;;
62110;SDS011;48102;47.526;19.072;2023-04-24T10:35:50;3.10;;;2.40;;
62110;SDS011;48102;47.526;19.072;2023-04-24T10:38:54;4.70;;;2.97;;
62110;SDS011;48102;47.526;19.072;2023-04-24T10:41:59;3.35;;;2.33;;
62110;SDS011;48102;47.526;19.072;2023-04-24T10:45:15;4.47;;;2.78;;
62110;SDS011;48102;47.526;19.072;2023-04-24T10:48:26;5.28;;;2.72;;
62110;SDS011;48102;47.526;19.072;2023-04-24T10:54:51;4.75;;;3.30;;
62110;SDS011;48102;47.526;19.072;2023-04-24T10:58:04;4.55;;;3.60;;
62110;SDS011;48102;47.526;19.072;2023-04-24T11:01:07;3.35;;;3.05;;
62110;SDS011;48102;47.526;19.072;2023-04-24T11:04:10;4.97;;;3.42;;
62110;SDS011;48102;47.526;19.072;2023-04-24T11:07:13;5.12;;;3.87;;
62110;SDS011;48102;47.526;19.072;2023-04-24T11:14:03;4.37;;;3.92;;
62110;SDS011;48102;47.526;19.072;2023-04-24T11:16:58;4.32;;;3.20;;
62110;SDS011;48102;47.526;19.072;2023-04-24T11:20:09;6.10;;;3.87;;
62110;SDS011;48102;47.526;19.072;2023-04-24T11:23:28;8.23;;;3.65;;
62110;SDS011;48102;47.526;19.072;2023-04-24T11:26:39;5.05;;;3.65;;
62110;SDS011;48102;47.526;19.072;2023-04-24T11:33:03;5.95;;;3.80;;
62110;SDS011;48102;47.526;19.072;2023-04-24T11:36:07;4.57;;;3.90;;
62110;SDS011;48102;47.526;19.072;2023-04-24T11:39:10;5.82;;;3.53;;
62110;SDS011;48102;47.526;19.072;2023-04-24T11:42:14;10.52;;;3.92;;
62110;SDS011;48102;47.526;19.072;2023-04-24T11:45:20;6.18;;;3.55;;
62110;SDS011;48102;47.526;19.072;2023-04-24T11:48:25;4.37;;;3.53;;
62110;SDS011;48102;47.526;19.072;2023-04-24T11:51:28;4.95;;;3.50;;
62110;SDS011;48102;47.526;19.072;2023-04-24T11:54:37;8.05;;;4.25;;
62110;SDS011;48102;47.526;19.072;2023-04-24T11:57:48;5.07;;;3.78;;
62110;SDS011;48102;47.526;19.072;2023-04-24T12:00:55;5.93;;;3.45;;
62110;SDS011;48102;47.526;19.072;2023-04-24T12:04:00;4.62;;;4.05;;
62110;SDS011;48102;47.526;19.072;2023-04-24T12:07:03;4.53;;;4.12;;
62110;SDS011;48102;47.526;19.072;2023-04-24T12:10:11;8.63;;;4.20;;
62110;SDS011;48102;47.526;19.072;2023-04-24T12:16:18;5.53;;;4.20;;
62110;SDS011;48102;47.526;19.072;2023-04-24T12:19:21;4.57;;;3.67;;
62110;SDS011;48102;47.526;19.072;2023-04-24T12:22:25;7.37;;;4.87;;
62110;SDS011;48102;47.526;19.072;2023-04-24T12:28:35;5.65;;;4.35;;
62110;SDS011;48102;47.526;19.072;2023-04-24T12:31:40;5.37;;;4.30;;
62110;SDS011;48102;47.526;19.072;2023-04-24T12:34:43;3.92;;;3.33;;
62110;SDS011;48102;47.526;19.072;2023-04-24T12:44:03;5.53;;;4.53;;
62110;SDS011;48102;47.526;19.072;2023-04-24T12:53:13;5.90;;;4.12;;
62110;SDS011;48102;47.526;19.072;2023-04-24T12:56:16;6.12;;;4.43;;
62110;SDS011;48102;47.526;19.072;2023-04-24T12:59:19;7.60;;;3.92;;
62110;SDS011;48102;47.526;19.072;2023-04-24T13:02:22;5.82;;;3.40;;
62110;SDS011;48102;47.526;19.072;2023-04-24T13:05:26;8.18;;;3.50;;
62110;SDS011;48102;47.526;19.072;2023-04-24T13:08:29;4.47;;;3.25;;
62110;SDS011;48102;47.526;19.072;2023-04-24T13:11:32;5.75;;;3.33;;
62110;SDS011;48102;47.526;19.072;2023-04-24T13:14:35;4.68;;;3.53;;
62110;SDS011;48102;47.526;19.072;2023-04-24T13:17:39;2.62;;;2.40;;
62110;SDS011;48102;47.526;19.072;2023-04-24T13:20:42;5.60;;;3.05;;
62110;SDS011;48102;47.526;19.072;2023-04-24T13:23:46;4.28;;;2.58;;
62110;SDS011;48102;47.526;19.072;2023-04-24T13:26:49;2.47;;;2.15;;
62110;SDS011;48102;47.526;19.072;2023-04-24T13:29:52;4.82;;;2.75;;
62110;SDS011;48102;47.526;19.072;2023-04-24T13:32:55;5.62;;;1.75;;
62110;SDS011;48102;47.526;19.072;2023-04-24T13:39:01;2.97;;;1.67;;
62110;SDS011;48102;47.526;19.072;2023-04-24T13:42:04;9.48;;;2.22;;
62110;SDS011;48102;47.526;19.072;2023-04-24T13:45:07;2.78;;;2.00;;
62110;SDS011;48102;47.526;19.072;2023-04-24T13:48:26;2.60;;;2.00;;
62110;SDS011;48102;47.526;19.072;2023-04-24T13:51:28;5.28;;;2.35;;
62110;SDS011;48102;47.526;19.072;2023-04-24T13:54:32;4.85;;;2.78;;
62110;SDS011;48102;47.526;19.072;2023-04-24T13:57:35;3.05;;;2.22;;
62110;SDS011;48102;47.526;19.072;2023-04-24T14:00:38;7.57;;;2.50;;
62110;SDS011;48102;47.526;19.072;2023-04-24T14:09:47;3.42;;;2.10;;
62110;SDS011;48102;47.526;19.072;2023-04-24T14:12:50;4.35;;;2.83;;
62110;SDS011;48102;47.526;19.072;2023-04-24T14:15:54;3.47;;;3.00;;
62110;SDS011;48102;47.526;19.072;2023-04-24T14:18:57;3.30;;;2.72;;
62110;SDS011;48102;47.526;19.072;2023-04-24T14:25:02;3.37;;;2.65;;
62110;SDS011;48102;47.526;19.072;2023-04-24T14:28:06;3.72;;;2.72;;
62110;SDS011;48102;47.526;19.072;2023-04-24T14:31:09;7.82;;;3.17;;
62110;SDS011;48102;47.526;19.072;2023-04-24T14:37:15;3.37;;;3.08;;
62110;SDS011;48102;47.526;19.072;2023-04-24T14:40:18;5.75;;;3.00;;
62110;SDS011;48102;47.526;19.072;2023-04-24T14:43:41;4.15;;;2.85;;
62110;SDS011;48102;47.526;19.072;2023-04-24T14:46:44;3.72;;;2.95;;
62110;SDS011;48102;47.526;19.072;2023-04-24T14:49:48;3.03;;;2.72;;
62110;SDS011;48102;47.526;19.072;2023-04-24T14:52:51;3.50;;;3.20;;
62110;SDS011;48102;47.526;19.072;2023-04-24T14:55:54;3.25;;;2.75;;
62110;SDS011;48102;47.526;19.072;2023-04-24T15:02:00;3.85;;;3.15;;
62110;SDS011;48102;47.526;19.072;2023-04-24T15:05:17;4.45;;;3.35;;
62110;SDS011;48102;47.526;19.072;2023-04-24T15:08:20;4.12;;;3.28;;
62110;SDS011;48102;47.526;19.072;2023-04-24T15:11:23;4.68;;;3.35;;
62110;SDS011;48102;47.526;19.072;2023-04-24T15:14:26;4.18;;;3.08;;
62110;SDS011;48102;47.526;19.072;2023-04-24T15:17:29;5.03;;;3.87;;
62110;SDS011;48102;47.526;19.072;2023-04-24T15:20:33;3.97;;;3.58;;
62110;SDS011;48102;47.526;19.072;2023-04-24T15:23:39;2.83;;;2.53;;
62110;SDS011;48102;47.526;19.072;2023-04-24T15:26:42;4.72;;;3.10;;
